aviador You're here: Registered users don't get ADS Register

SEE the Operating hours

LEVC Decoded Metar

VALENCIA in SPAIN
Report Time2014-04-21 04:30:00
UTC Time2014-04-21 04:52:33
Flight Rules vfr VFR
Wind250° at 04 kt
W.Decomp.*RWY 30: 2.6 kt HW 3 kt LCW
W.Rank250° ranks 2
Current wind is below 250° avg. (9.0)
Visibility9999 m
Phenomena:N/A
Clouds:Few 025 Hf
Expected CloudBase > 1,200 ft AGL from Temp-Dew spread
CeilingNone
Temp14°C (ISA -1)
Dew Point11°C (82% RH)
AAT12.9°C
QNH1003 hPa
Density Alt650 ft
Elevation203 ft
Report Wrong Elevation
Raw Report
LEVC 210430Z 25004KT 9999 FEW025 14/11 Q1003 NOSIG=

Extra information for LEVC:More info

Metar Decoded Metar & Taf Metar Last 4 Metars Taf Meteogram F.Rules Stats Wind Profile Operation Airport Information Weather charts Add Link Nearby VenuesMetar ALERT Social comments Help

Webcam Valencia